Time;durP1;ratioP1;P1;durP2;ratioP2;P2;SDS_P1;SDS_P2;PMS_P1;PMS_P2;Temp;Humidity;BMP_temperature;BMP_pressure;BME280_temperature;BME280_humidity;BME280_pressure;Samples;Min_cycle;Max_cycle;Signal;HPM_P1;HPM_P2
2020/12/17 06:09:24;;;;;;;35.25;19.05;;;;;;;1.79;83.54;100863.45;1750514;81;21320;-57
2020/12/17 06:11:52;;;;;;;34.20;19.23;;;;;;;1.79;83.54;100863.45;1705257;83;21344;-54
2020/12/17 06:14:21;;;;;;;39.45;24.30;;;;;;;1.82;83.56;100868.02;1723819;82;21721;-54
2020/12/17 06:16:53;;;;;;;39.38;22.52;;;;;;;1.89;83.27;100869.39;1682126;84;21360;-53
2020/12/17 06:19:23;;;;;;;41.50;23.07;;;;;;;1.89;83.27;100869.39;1682990;84;21251;-54
2020/12/17 06:21:51;;;;;;;50.70;30.90;;;;;;;1.91;83.19;100873.63;1715465;83;21622;-54
2020/12/17 06:24:20;;;;;;;40.63;23.30;;;;;;;1.94;83.21;100874.78;1716994;83;21236;-56
2020/12/17 06:26:52;;;;;;;55.48;32.60;;;;;;;1.94;83.13;100873.05;1692335;83;21214;-59
2020/12/17 06:29:22;;;;;;;43.33;24.05;;;;;;;1.96;83.06;100880.23;1701734;83;21629;-58
2020/12/17 06:31:55;;;;;;;70.50;39.75;;;;;;;1.98;82.91;100886.14;1685504;83;21631;-57
2020/12/17 06:34:37;;;;;;;52.33;29.98;;;;;;;2.03;82.79;100883.34;1815666;77;22256;-56
2020/12/17 06:37:05;;;;;;;65.28;35.65;;;;;;;1.98;82.79;100880.98;1783126;79;21211;-55
2020/12/17 06:39:34;;;;;;;77.90;45.10;;;;;;;2.01;82.80;100882.60;1785908;79;21617;-57
2020/12/17 06:42:02;;;;;;;57.70;31.90;;;;;;;2.03;82.74;100883.34;1785764;79;21472;-55
2020/12/17 06:44:32;;;;;;;69.32;36.98;;;;;;;2.01;82.62;100875.70;1761777;81;21590;-56
2020/12/17 06:47:04;;;;;;;53.92;29.00;;;;;;;1.96;82.62;100884.10;1779327;80;21146;-57
2020/12/17 06:49:32;;;;;;;49.30;24.52;;;;;;;1.96;82.74;100883.27;1777771;80;21218;-56
2020/12/17 06:52:08;;;;;;;41.60;21.65;;;;;;;2.01;82.78;100883.43;1769813;80;21514;-57
2020/12/17 06:54:40;;;;;;;63.90;33.88;;;;;;;2.04;82.83;100874.25;1710328;82;21150;-58
2020/12/17 06:57:16;;;;;;;71.35;40.28;;;;;;;2.08;82.66;100880.93;1716365;83;21146;-59
2020/12/17 07:00:08;;;;;;;63.25;34.38;;;;;;;2.03;82.57;100888.51;1701581;83;21521;-58
2020/12/17 07:02:41;;;;;;;54.58;30.05;;;;;;;2.03;82.57;100888.51;1758287;81;21282;-58
2020/12/17 07:05:33;;;;;;;44.65;25.17;;;;;;;2.09;82.66;100883.88;1730901;82;21606;-56
2020/12/17 07:08:02;;;;;;;63.25;35.48;;;;;;;2.13;82.59;100887.16;1698230;83;21335;-56
2020/12/17 07:10:31;;;;;;;42.93;21.93;;;;;;;2.15;82.56;100886.16;1720253;82;21879;-56
2020/12/17 07:12:59;;;;;;;36.10;18.85;;;;;;;2.16;82.39;100885.70;1712154;83;21128;-56
2020/12/17 07:15:35;;;;;;;45.15;24.95;;;;;;;2.18;82.27;100889.52;1687890;83;21584;-56
2020/12/17 07:18:25;;;;;;;39.50;21.73;;;;;;;2.22;82.30;100894.89;1712138;83;21332;-55
2020/12/17 07:21:07;;;;;;;49.55;27.48;;;;;;;2.22;82.24;100894.89;1721741;83;21765;-55
2020/12/17 07:23:36;;;;;;;48.38;27.02;;;;;;;2.23;82.23;100897.38;1699328;83;21214;-55
2020/12/17 07:26:14;;;;;;;43.50;21.42;;;;;;;2.24;82.16;100896.95;1671782;84;21599;-55
2020/12/17 07:28:51;;;;;;;41.77;21.50;;;;;;;2.19;81.86;100898.92;1683788;85;21245;-55
2020/12/17 07:31:26;;;;;;;40.05;20.77;;;;;;;2.20;82.24;100905.28;1679130;84;21591;-59
2020/12/17 07:33:54;;;;;;;37.95;18.62;;;;;;;2.25;82.26;100901.20;1694813;84;21194;-58
2020/12/17 07:36:45;;;;;;;40.78;19.60;;;;;;;2.24;82.19;100902.12;1700574;84;21166;-61
2020/12/17 07:39:15;;;;;;;45.10;21.93;;;;;;;2.25;82.17;100905.91;1722424;82;21636;-56
2020/12/17 07:41:44;;;;;;;44.05;22.67;;;;;;;2.30;82.05;100909.52;1741177;82;21150;-58
2020/12/17 07:44:18;;;;;;;44.30;23.55;;;;;;;2.32;81.87;100911.13;1744103;81;21102;-58
2020/12/17 07:46:46;;;;;;;43.42;22.67;;;;;;;2.33;81.90;100912.80;1718481;83;21548;-58
2020/12/17 07:49:26;;;;;;;44.88;24.37;;;;;;;2.36;81.85;100913.09;1743858;80;21122;-58
2020/12/17 07:51:56;;;;;;;49.55;24.75;;;;;;;2.39;81.72;100915.53;1754729;80;21078;-60
2020/12/17 07:54:25;;;;;;;92.57;55.15;;;;;;;2.38;81.61;100918.57;1737982;80;21150;-58
2020/12/17 07:56:59;;;;;;;114.30;81.20;;;;;;;2.41;81.55;100917.57;1733973;80;21273;-59
2020/12/17 07:59:30;;;;;;;68.65;45.25;;;;;;;2.42;81.53;100923.97;1745484;80;21284;-59
2020/12/17 08:02:03;;;;;;;56.75;32.33;;;;;;;2.45;81.55;100926.84;1734165;80;21148;-58
2020/12/17 08:04:32;;;;;;;60.35;31.15;;;;;;;2.47;81.61;100926.75;1744998;80;21562;-56
2020/12/17 08:07:08;;;;;;;45.95;22.93;;;;;;;2.54;81.37;100933.27;1750311;80;21627;-63
2020/12/17 08:09:37;;;;;;;41.98;22.07;;;;;;;2.50;81.30;100931.31;1745719;80;21159;-59
2020/12/17 08:12:10;;;;;;;46.40;22.80;;;;;;;2.51;81.31;100938.59;1752268;80;21537;-59
2020/12/17 08:14:39;;;;;;;54.77;29.60;;;;;;;2.53;81.23;100939.34;1761667;80;21202;-59
2020/12/17 08:17:07;;;;;;;50.00;26.80;;;;;;;2.55;81.25;100937.55;1675788;83;21608;-58
2020/12/17 08:19:35;;;;;;;71.10;40.73;;;;;;;2.55;81.19;100940.96;1747759;82;21600;-59
2020/12/17 08:22:03;;;;;;;47.15;25.37;;;;;;;2.58;81.14;100937.38;1747400;82;21897;-59
2020/12/17 08:24:35;;;;;;;70.08;39.45;;;;;;;2.61;80.95;100939.36;1735170;82;21228;-56
2020/12/17 08:27:03;;;;;;;45.17;26.00;;;;;;;2.68;80.82;100947.17;1734019;82;21119;-58
2020/12/17 08:29:31;;;;;;;48.10;25.95;;;;;;;2.69;80.61;100942.84;1718333;82;21610;-57
2020/12/17 08:32:00;;;;;;;56.60;29.72;;;;;;;2.67;80.61;100948.09;1745189;81;21114;-58
2020/12/17 08:34:29;;;;;;;51.02;26.27;;;;;;;2.66;80.52;100945.56;1735385;82;21178;-56
2020/12/17 08:36:57;;;;;;;47.27;25.95;;;;;;;2.66;80.52;100953.30;1749573;82;21621;-59
2020/12/17 08:39:27;;;;;;;51.85;29.63;;;;;;;2.64;80.50;100947.39;1755717;82;21166;-58
2020/12/17 08:41:57;;;;;;;47.98;24.77;;;;;;;2.59;80.47;100955.81;1752927;82;21106;-57
2020/12/17 08:44:28;;;;;;;45.43;25.15;;;;;;;2.59;80.62;100955.81;1751645;81;21617;-57
2020/12/17 08:46:58;;;;;;;39.45;22.27;;;;;;;2.61;80.63;100954.02;1737619;82;21277;-57
2020/12/17 08:49:28;;;;;;;49.18;24.85;;;;;;;2.61;80.56;100952.72;1723718;81;21285;-57
2020/12/17 08:51:56;;;;;;;37.93;19.92;;;;;;;2.61;80.58;100960.47;1728344;82;21245;-58
2020/12/17 08:54:33;;;;;;;38.95;20.57;;;;;;;2.61;80.48;100963.05;1746699;80;21543;-55
2020/12/17 08:57:11;;;;;;;45.80;24.25;;;;;;;2.54;80.49;100968.10;1748277;80;21216;-58
2020/12/17 08:59:40;;;;;;;41.98;21.23;;;;;;;2.46;80.90;100973.64;1751469;82;21121;-55
2020/12/17 09:02:08;;;;;;;43.95;22.58;;;;;;;2.46;80.92;100974.09;1719387;83;21625;-56
2020/12/17 09:04:36;;;;;;;39.42;21.65;;;;;;;2.51;81.00;100976.01;1726799;82;21602;-57
2020/12/17 09:07:05;;;;;;;50.58;27.22;;;;;;;2.53;80.85;100974.17;1733341;81;21193;-55
2020/12/17 09:09:34;;;;;;;47.73;24.98;;;;;;;2.52;80.84;100976.38;1751576;80;21635;-57
2020/12/17 09:12:04;;;;;;;52.35;24.57;;;;;;;2.52;80.86;100972.52;1748648;81;21154;-58
2020/12/17 09:14:34;;;;;;;52.03;25.43;;;;;;;2.55;80.96;100974.95;1747461;80;21597;-60
2020/12/17 09:17:14;;;;;;;55.00;27.98;;;;;;;2.55;80.84;100978.37;1743497;81;21163;-62
2020/12/17 09:19:46;;;;;;;47.48;24.27;;;;;;;2.56;80.91;100977.91;1750229;81;21205;-57
2020/12/17 09:22:19;;;;;;;51.98;27.58;;;;;;;2.59;80.87;100975.16;1757735;81;21189;-58
2020/12/17 09:24:49;;;;;;;49.13;26.00;;;;;;;2.59;80.78;100972.59;1744632;80;21139;-57
2020/12/17 09:27:28;;;;;;;49.63;26.60;;;;;;;2.61;80.72;100974.20;1750010;80;21653;-58
2020/12/17 09:30:14;;;;;;;43.83;24.65;;;;;;;2.56;80.56;100988.23;1744742;82;21284;-58
2020/12/17 09:32:55;;;;;;;46.37;22.98;;;;;;;2.46;80.82;100979.26;1758115;81;21244;-57
2020/12/17 09:35:33;;;;;;;44.35;25.52;;;;;;;2.44;81.07;100975.47;1759122;81;21183;-59
2020/12/17 09:38:12;;;;;;;44.60;25.70;;;;;;;2.46;81.10;100976.68;1756798;80;21145;-58
2020/12/17 09:40:45;;;;;;;44.23;23.67;;;;;;;2.48;81.07;100980.84;1762817;80;21146;-56
2020/12/17 09:43:15;;;;;;;45.43;23.95;;;;;;;2.52;81.06;100984.95;1772513;80;22409;-56
2020/12/17 09:45:46;;;;;;;49.13;23.30;;;;;;;2.56;81.00;100988.23;1766208;80;22135;-61
2020/12/17 09:48:29;;;;;;;43.92;22.55;;;;;;;2.62;81.03;100986.64;1775130;80;21158;-55
2020/12/17 09:51:03;;;;;;;40.75;21.48;;;;;;;2.66;80.94;100976.53;1688148;83;21641;-55
2020/12/17 09:53:39;;;;;;;56.42;31.27;;;;;;;2.68;80.76;100975.56;1722170;83;22539;-55
2020/12/17 09:56:12;;;;;;;52.83;30.50;;;;;;;2.68;80.61;100978.59;1710800;83;21198;-55
2020/12/17 09:58:43;;;;;;;53.05;28.05;;;;;;;2.67;80.58;100976.91;1703605;83;21197;-54
2020/12/17 10:01:12;;;;;;;62.80;32.00;;;;;;;2.67;80.73;100972.61;1699566;84;21554;-55
2020/12/17 10:03:40;;;;;;;42.05;23.20;;;;;;;2.69;80.63;100978.52;1694324;83;21740;-61
2020/12/17 10:06:09;;;;;;;42.53;22.32;;;;;;;2.72;80.49;100980.09;1675371;83;21324;-56
2020/12/17 10:08:37;;;;;;;46.45;23.20;;;;;;;2.74;80.40;100970.55;1675774;85;21776;-57
2020/12/17 10:11:06;;;;;;;47.35;21.93;;;;;;;2.72;80.34;100974.94;1712319;83;21329;-55
2020/12/17 10:13:36;;;;;;;53.00;25.82;;;;;;;2.74;80.36;100974.88;1691685;84;21608;-60
2020/12/17 10:16:04;;;;;;;46.83;24.43;;;;;;;2.74;80.33;100974.88;1681278;83;21596;-55
2020/12/17 10:18:32;;;;;;;44.73;22.10;;;;;;;2.77;80.43;100971.67;1717904;82;21515;-58
2020/12/17 10:21:01;;;;;;;45.25;22.93;;;;;;;2.78;80.26;100974.62;1697988;83;21589;-55
2020/12/17 10:23:29;;;;;;;46.63;24.55;;;;;;;2.77;80.17;100972.13;1695919;84;21772;-55
2020/12/17 10:25:58;;;;;;;48.02;23.22;;;;;;;2.75;80.33;100976.55;1724859;83;21360;-55
2020/12/17 10:28:26;;;;;;;47.05;23.87;;;;;;;2.81;80.29;100971.08;1712730;82;21301;-55
2020/12/17 10:30:56;;;;;;;47.35;24.65;;;;;;;2.78;80.19;100968.63;1701818;83;21321;-55
2020/12/17 10:33:24;;;;;;;54.18;26.73;;;;;;;2.75;80.18;100973.97;1695508;83;21347;-56
2020/12/17 10:35:52;;;;;;;51.92;25.37;;;;;;;2.72;80.29;100974.94;1705275;83;21158;-57
2020/12/17 10:38:21;;;;;;;45.40;24.72;;;;;;;2.73;80.24;100970.14;1701935;83;21717;-58
2020/12/17 10:40:49;;;;;;;45.65;23.62;;;;;;;2.79;80.20;100978.05;1702151;83;21187;-55
2020/12/17 10:43:17;;;;;;;55.28;29.23;;;;;;;2.68;80.10;100972.98;1702779;83;21199;-55
2020/12/17 10:45:45;;;;;;;68.47;37.78;;;;;;;2.68;80.10;100972.98;1688821;85;21341;-57
2020/12/17 10:48:15;;;;;;;72.32;40.70;;;;;;;2.70;80.34;100979.34;1688912;85;21158;-55
2020/12/17 10:50:43;;;;;;;64.95;35.73;;;;;;;2.70;80.38;100979.34;1689145;85;21206;-55
2020/12/17 10:53:11;;;;;;;55.20;28.12;;;;;;;2.73;80.29;100983.05;1688592;85;21222;-56
2020/12/17 10:55:39;;;;;;;50.05;25.77;;;;;;;2.72;80.22;100980.55;1687901;84;21539;-55
2020/12/17 10:58:08;;;;;;;48.40;24.37;;;;;;;2.76;80.23;100980.80;1697273;83;21166;-60
2020/12/17 11:00:36;;;;;;;43.68;22.80;;;;;;;2.81;80.12;100980.11;1706659;83;21610;-56
2020/12/17 11:03:07;;;;;;;42.70;23.18;;;;;;;2.78;79.99;100977.67;1711540;83;21646;-57
2020/12/17 11:05:36;;;;;;;45.10;23.12;;;;;;;2.79;79.94;100976.30;1720641;83;21617;-55
2020/12/17 11:08:04;;;;;;;42.75;22.10;;;;;;;2.77;79.91;100978.12;1692730;83;21326;-59
2020/12/17 11:10:33;;;;;;;49.27;24.40;;;;;;;2.75;79.96;100974.80;1691492;83;21174;-58
2020/12/17 11:13:03;;;;;;;42.60;22.75;;;;;;;2.75;79.99;100977.38;1710388;83;21661;-56
2020/12/17 11:15:31;;;;;;;46.90;24.87;;;;;;;2.76;79.87;100976.92;1737857;82;21186;-54
2020/12/17 11:18:00;;;;;;;51.35;28.40;;;;;;;2.76;79.99;100977.75;1756348;82;21154;-54
2020/12/17 11:20:28;;;;;;;57.62;31.37;;;;;;;2.78;79.95;100970.76;1721791;81;21150;-59
2020/12/17 11:22:56;;;;;;;63.95;35.25;;;;;;;2.78;79.92;100977.20;1717083;83;21809;-60
2020/12/17 11:25:26;;;;;;;66.28;35.60;;;;;;;2.76;79.90;100982.08;1719836;83;21594;-56
2020/12/17 11:27:54;;;;;;;78.70;38.28;;;;;;;2.69;79.92;100977.22;1723943;83;21166;-55
2020/12/17 11:30:23;;;;;;;80.12;37.00;;;;;;;2.65;80.18;100973.12;1724099;83;21585;-55
2020/12/17 11:32:52;;;;;;;78.72;38.33;;;;;;;2.65;80.15;100974.86;1719812;82;21626;-54
2020/12/17 11:35:20;;;;;;;63.15;33.42;;;;;;;2.69;80.35;100973.81;1735904;82;21219;-57
2020/12/17 11:37:52;;;;;;;52.23;27.50;;;;;;;2.70;80.32;100977.59;1743831;82;21176;-55
2020/12/17 11:40:22;;;;;;;53.42;27.93;;;;;;;2.75;80.34;100975.26;1738739;81;21192;-53
2020/12/17 11:42:55;;;;;;;58.50;32.50;;;;;;;2.78;80.17;100981.08;1741438;81;21347;-54
2020/12/17 11:45:24;;;;;;;54.63;29.05;;;;;;;2.78;80.12;100984.95;1733524;81;21585;-56
2020/12/17 11:47:53;;;;;;;53.30;28.17;;;;;;;2.77;80.10;100986.33;1767968;80;21121;-55
2020/12/17 11:50:21;;;;;;;46.48;24.90;;;;;;;2.75;80.15;100990.74;1747310;82;22346;-57
2020/12/17 11:52:49;;;;;;;46.80;25.60;;;;;;;2.79;80.24;100994.36;1739822;80;21559;-59
2020/12/17 11:55:18;;;;;;;50.65;27.20;;;;;;;2.80;80.06;100993.48;1716547;83;21154;-58
2020/12/17 11:57:48;;;;;;;53.92;29.35;;;;;;;2.76;80.03;100998.86;1688810;83;21325;-58
2020/12/17 12:00:17;;;;;;;50.03;27.30;;;;;;;2.80;80.18;100996.52;1726126;80;21618;-59
2020/12/17 12:02:45;;;;;;;52.88;27.15;;;;;;;2.80;80.00;100994.77;1770887;80;21204;-60
2020/12/17 12:05:14;;;;;;;48.98;26.95;;;;;;;2.76;80.07;100988.08;1746675;80;21606;-61
2020/12/17 12:07:44;;;;;;;49.05;26.48;;;;;;;2.79;80.07;100984.03;1746622;82;21218;-60
2020/12/17 12:10:12;;;;;;;57.10;32.13;;;;;;;2.81;79.92;100987.86;1761722;81;21116;-60
2020/12/17 12:12:41;;;;;;;65.40;33.85;;;;;;;2.81;79.86;100985.27;1746389;81;21580;-58
2020/12/17 12:15:10;;;;;;;59.13;31.77;;;;;;;2.81;79.87;100983.52;1753647;80;21144;-60
2020/12/17 12:17:38;;;;;;;63.42;35.25;;;;;;;2.79;79.81;100983.20;1745499;82;21166;-58
2020/12/17 12:20:10;;;;;;;59.38;32.83;;;;;;;2.80;79.89;100988.77;1740425;80;21147;-57
2020/12/17 12:22:38;;;;;;;61.37;33.78;;;;;;;2.77;79.78;100990.20;1715377;82;21174;-58
2020/12/17 12:25:07;;;;;;;55.40;30.57;;;;;;;2.73;79.76;100984.34;1716559;82;21590;-58
2020/12/17 12:27:35;;;;;;;52.27;29.05;;;;;;;2.67;79.81;100991.09;1730708;82;21654;-56
2020/12/17 12:30:03;;;;;;;55.20;29.45;;;;;;;2.62;79.92;100989.22;1726620;82;21165;-58
2020/12/17 12:32:32;;;;;;;53.05;29.60;;;;;;;2.57;80.08;100992.02;1739386;81;21682;-57
2020/12/17 12:35:02;;;;;;;54.65;29.67;;;;;;;2.60;80.14;100992.31;1730419;81;21637;-57
2020/12/17 12:37:32;;;;;;;64.50;31.73;;;;;;;2.55;80.12;100994.31;1760905;81;21304;-57
2020/12/17 12:40:00;;;;;;;52.30;29.63;;;;;;;2.50;80.26;100998.39;1730029;81;21174;-57
2020/12/17 12:42:28;;;;;;;57.48;32.93;;;;;;;2.50;80.35;100997.56;1701273;83;21169;-59
2020/12/17 12:44:56;;;;;;;55.35;32.83;;;;;;;2.51;80.37;101001.34;1718716;81;21180;-60
2020/12/17 12:47:26;;;;;;;54.15;32.20;;;;;;;2.48;80.52;101001.94;1730967;82;21134;-58
2020/12/17 12:49:55;;;;;;;57.17;31.80;;;;;;;2.48;80.55;101001.48;1731515;82;21155;-58
2020/12/17 12:52:23;;;;;;;57.20;28.38;;;;;;;2.45;80.59;101002.94;1671247;85;21550;-57
2020/12/17 12:54:51;;;;;;;46.10;26.33;;;;;;;2.40;80.69;101000.56;1746187;81;21164;-57
2020/12/17 12:57:20;;;;;;;50.15;28.83;;;;;;;2.38;80.80;101002.85;1712282;81;21169;-58
2020/12/17 12:59:48;;;;;;;46.30;27.75;;;;;;;2.35;80.91;100994.79;1733735;81;21194;-58
2020/12/17 13:02:17;;;;;;;54.80;31.55;;;;;;;2.34;80.93;100993.13;1736151;81;21269;-57
2020/12/17 13:04:46;;;;;;;59.98;30.40;;;;;;;2.36;81.02;101000.78;1711940;81;21191;-59
2020/12/17 13:07:14;;;;;;;57.10;30.55;;;;;;;2.44;80.92;100997.40;1712799;82;21186;-58
2020/12/17 13:09:43;;;;;;;60.20;31.50;;;;;;;2.48;80.64;101008.39;1739574;81;21314;-59
2020/12/17 13:12:11;;;;;;;59.42;32.38;;;;;;;2.57;80.73;101005.38;1737927;82;21567;-57
2020/12/17 13:14:40;;;;;;;73.50;42.03;;;;;;;2.62;80.42;101005.53;1731627;82;21159;-56
2020/12/17 13:17:09;;;;;;;89.45;44.30;;;;;;;2.57;80.40;101001.51;1710236;84;21195;-54
2020/12/17 13:19:39;;;;;;;116.35;51.90;;;;;;;2.53;80.38;101005.13;1712129;82;21135;-54
2020/12/17 13:22:07;;;;;;;112.57;52.20;;;;;;;2.51;80.52;101008.25;1733637;81;21637;-54
2020/12/17 13:24:36;;;;;;;113.05;52.70;;;;;;;2.51;80.48;101001.34;1727679;82;21618;-55
2020/12/17 13:27:04;;;;;;;82.25;39.90;;;;;;;2.49;80.35;101004.47;1693274;83;21108;-56
2020/12/17 13:29:32;;;;;;;73.28;40.88;;;;;;;2.39;80.46;101001.48;1738065;81;21866;-56
2020/12/17 13:32:01;;;;;;;93.75;50.85;;;;;;;2.41;80.66;101015.59;1717479;82;21717;-55
2020/12/17 13:34:29;;;;;;;91.92;51.77;;;;;;;2.37;80.69;101002.48;1746081;81;21822;-55
2020/12/17 13:36:57;;;;;;;84.65;44.77;;;;;;;2.35;80.82;101002.98;1763422;81;21285;-57
2020/12/17 13:39:27;;;;;;;77.15;41.58;;;;;;;2.37;81.09;101003.31;1758593;81;21179;-56
2020/12/17 13:41:56;;;;;;;89.80;48.15;;;;;;;2.42;80.83;101014.25;1748115;82;21135;-56
2020/12/17 13:44:24;;;;;;;79.17;45.05;;;;;;;2.43;80.73;101014.62;1733391;80;21312;-56
2020/12/17 13:46:56;;;;;;;81.60;46.15;;;;;;;2.39;80.73;101020.83;1718272;83;21308;-56
2020/12/17 13:49:24;;;;;;;80.05;46.70;;;;;;;2.45;80.92;101023.57;1719044;83;21305;-56
2020/12/17 13:51:52;;;;;;;82.60;45.95;;;;;;;2.54;80.62;101026.98;1722014;80;21757;-58
2020/12/17 13:54:20;;;;;;;76.20;44.45;;;;;;;2.52;80.51;101027.98;1682442;83;21586;-57
2020/12/17 13:56:49;;;;;;;73.47;42.80;;;;;;;2.48;80.53;101031.14;1736957;82;21152;-57
2020/12/17 13:59:17;;;;;;;75.37;44.93;;;;;;;2.53;80.57;101033.52;1742935;80;21653;-55
2020/12/17 14:01:45;;;;;;;68.90;40.65;;;;;;;2.61;80.51;101030.97;1727788;82;21159;-58
2020/12/17 14:04:14;;;;;;;74.45;44.38;;;;;;;2.73;80.40;101037.70;1745787;80;21542;-56
2020/12/17 14:06:43;;;;;;;69.60;42.25;;;;;;;2.79;80.07;101033.08;1743805;82;21277;-59
2020/12/17 14:09:12;;;;;;;65.55;39.20;;;;;;;2.67;79.87;101033.25;1747972;82;21586;-56
2020/12/17 14:11:40;;;;;;;67.75;39.00;;;;;;;2.59;80.06;101040.50;1731664;82;21622;-57
2020/12/17 14:14:09;;;;;;;66.45;40.17;;;;;;;2.64;80.04;101039.83;1712870;84;21697;-55
2020/12/17 14:16:42;;;;;;;73.00;40.80;;;;;;;2.68;80.02;101043.11;1712821;84;21627;-56
2020/12/17 14:19:12;;;;;;;101.18;54.18;;;;;;;2.68;80.02;101049.11;1712765;84;21151;-55
2020/12/17 14:24:21;;;;;;;99.00;57.45;;;;;;;2.75;79.96;101045.77;1834992;77;22589;-57
2020/12/17 14:26:49;;;;;;;126.62;75.08;;;;;;;2.75;79.71;101051.39;1790506;80;21566;-55
2020/12/17 14:29:17;;;;;;;136.95;84.83;;;;;;;2.68;79.69;101043.11;1762509;80;21633;-57
2020/12/17 14:31:46;;;;;;;98.42;59.83;;;;;;;2.71;79.80;101041.66;1773037;80;21559;-59
2020/12/17 14:34:14;;;;;;;72.22;42.98;;;;;;;2.76;79.73;101044.02;1793742;80;21147;-57
2020/12/17 14:36:44;;;;;;;74.12;44.38;;;;;;;2.75;79.60;101044.94;1793737;80;21190;-57
2020/12/17 14:39:12;;;;;;;50.95;29.10;;;;;;;2.68;79.52;101043.11;1793392;80;21161;-59
2020/12/17 14:41:40;;;;;;;44.67;24.32;;;;;;;2.57;79.67;101045.37;1793825;80;21158;-58
2020/12/17 14:44:09;;;;;;;48.90;28.95;;;;;;;2.49;79.86;101050.91;1793756;80;21277;-55
2020/12/17 14:46:38;;;;;;;43.17;24.60;;;;;;;2.47;80.12;101050.58;1793275;80;21155;-62
2020/12/17 14:49:06;;;;;;;45.92;26.42;;;;;;;2.48;80.28;101049.20;1793506;80;21658;-54
2020/12/17 14:51:34;;;;;;;74.27;45.03;;;;;;;2.52;80.29;101048.62;1779603;80;21146;-57
